Plymouth Light

42° 00' 12"N, 70° 36' 04"W, Elevation 54 ft.
Eastern Time

Hourly observations for the last 72 hours

Date Time Temperature (°F) Humi-
dity

(%)
Wind
(mph)
Pressure Rain (in) Sun
(W/m2)
ET
(in)
Air Dew 6 Hour 1 Hr 3 Hr 6 Hr Day
Alt
(in)
Sea
Level

(mb)
Max Min
11 19:00 34.1 25.7 38.2 34.0 71 WNW 2 G 4 29.92 1013.3 0.00 0 0.046
11 18:00 35.6 24.6 64 SSW 6 G 8 29.94 1014.1 0.00 0 0.045
11 17:00 35.0 25.2 67 SSW 7 G 12 29.94 1014.0 0.00 0 0.044
11 16:00 35.9 24.5 63 W 7 G 11 29.96 1014.6 0.00 11 0.041
11 15:00 37.7 22.6 54 W 9 G 15 29.97 1015.0 0.00 116 0.037
11 14:00 38.1 25.0 59 W 4 G 7 29.98 1015.2 0.00 285 0.032
11 13:00 35.7 27.6 35.7 22.9 72 SSE 3 G 6 30.01 1016.4 0.00 383 0.026
11 12:00 34.8 26.0 70 S 2 G 5 30.05 1017.7 0.00 429 0.020
11 11:00 32.3 24.9 74 NW 3 G 4 30.08 1018.8 0.00 427 0.015
11 10:00 30.6 23.6 75 NW 2 G 3 30.10 1019.5 0.00 371 0.011
11 09:00 27.5 21.5 78 NW 5 G 8 30.14 1020.8 0.00 269 0.008
11 08:00 25.1 19.8 80 NW 5 G 9 30.15 1021.0 0.00 102 0.007
11 07:00 23.0 17.5 27.5 23.0 79 NNW 6 G 10 30.15 1021.1 0.00 5 0.006
11 06:00 23.8 17.6 77 NW 8 G 10 30.15 1020.9 0.00 0 0.005
11 05:00 24.1 17.6 76 NNW 6 G 12 30.13 1020.4 0.00 0 0.004
11 04:00 24.6 17.8 75 NNW 6 G 9 30.13 1020.2 0.00 0 0.003
11 03:00 25.7 18.2 73 NNW 6 G 12 30.14 1020.5 0.00 0 0.002
11 02:00 26.4 18.6 72 NNW 8 G 14 30.14 1020.6 0.00 0 0.001
11 01:00 27.3 19.8 33.9 26.6 73 NNW 8 G 12 30.13 1020.2 0.00 0 0.000
11 00:00 27.2 18.7 70 NNW 5 G 10 30.12 1019.9 0.00 0 0.060
10 23:00 30.5 19.0 62 N 6 G 13 30.12 1020.1 0.00 0 0.058
10 22:00 31.4 17.5 56 NNE 14 G 21 30.12 1020.0 0.00 0 0.055
10 21:00 32.4 18.0 55 N 13 G 20 30.12 1019.9 0.00 0 0.053
10 20:00 32.8 19.6 58 N 12 G 20 30.11 1019.7 0.00 0 0.050
10 19:00 32.8 20.0 36.0 30.7 59 N 11 G 16 30.09 1019.1 0.00 0 0.049
10 18:00 31.0 20.6 65 NNW 6 G 10 30.08 1018.6 0.00 0 0.048
10 17:00 32.2 21.0 63 NNW 5 G 11 30.07 1018.2 0.00 0 0.047
10 16:00 34.4 20.7 57 N 4 G 10 30.06 1018.1 0.00 11 0.045
10 15:00 34.9 24.0 64 NNE 6 G 11 30.05 1017.6 0.00 114 0.041
10 14:00 35.4 24.8 65 N 8 G 16 30.04 1017.4 0.00 279 0.035
10 13:00 35.8 25.9 36.1 32.1 67 N 10 G 18 30.03 1016.9 0.00 411 0.027
10 12:00 35.2 26.7 71 N 13 G 21 30.02 1016.7 0.00 200 0.021
10 11:00 35.6 27.5 72 N 13 G 20 30.03 1017.1 0.00 255 0.016
10 10:00 35.1 27.0 72 N 11 G 22 30.05 1017.5 0.00 181 0.012
10 09:00 35.0 27.2 73 N 14 G 22 30.03 1017.0 0.00 63 0.009
10 08:00 34.1 26.4 73 N 15 G 21 30.02 1016.5 0.00 33 0.007
10 07:00 32.1 26.3 32.1 26.5 79 NNE 16 G 22 30.01 1016.4 0.00 0 0.006
10 06:00 27.0 20.8 77 NNW 7 G 13 30.01 1016.2 0.00 0 0.005
10 05:00 27.0 19.8 74 NNW 9 G 14 30.00 1016.0 0.00 0 0.004
10 04:00 27.6 19.4 71 NNW 6 G 15 30.01 1016.3 0.00 0 0.003
10 03:00 28.2 19.7 70 NNW 8 G 14 30.02 1016.7 0.00 0 0.002
10 02:00 28.8 19.9 69 NW 9 G 14 30.04 1017.4 0.00 0 0.001
10 01:00 29.5 20.9 31.9 29.4 70 NW 9 G 16 30.05 1017.8 0.00 0 0.000
10 00:00 30.7 22.4 71 WNW 9 G 16 30.08 1018.6 0.00 0 0.051
9 23:00 31.3 23.3 72 W 9 G 15 30.11 1019.6 0.00 0 0.050
9 22:00 31.7 23.4 71 W 11 G 18 30.10 1019.4 0.00 0 0.049
9 21:00 31.4 23.8 73 W 6 G 15 30.12 1020.0 0.00 0 0.048
9 20:00 31.0 23.4 73 WSW 12 G 17 30.15 1021.0 0.00 0 0.047
9 19:00 31.3 23.3 33.9 31.2 72 WSW 9 G 16 30.15 1021.0 0.00 0 0.046
9 18:00 31.4 22.4 69 WSW 6 G 16 30.16 1021.5 0.00 0 0.045
9 17:00 31.9 21.1 64 WSW 7 G 11 30.20 1022.6 0.00 0 0.044
9 16:00 32.6 22.5 66 WSW 10 G 17 30.21 1023.1 0.00 9 0.042
9 15:00 32.9 20.9 61 WSW 10 G 16 30.23 1023.8 0.00 74 0.039
9 14:00 33.2 20.0 58 WSW 12 G 17 30.25 1024.6 0.00 197 0.034
9 13:00 32.8 19.6 33.1 22.6 58 W 8 G 16 30.29 1025.8 0.00 362 0.028
9 12:00 31.6 18.5 58 W 8 G 11 30.30 1026.0 0.00 364 0.021
9 11:00 30.3 18.5 61 W 10 G 14 30.35 1027.7 0.00 323 0.016
9 10:00 27.9 18.7 68 WNW 11 G 14 30.39 1029.2 0.00 241 0.012
9 09:00 24.9 18.4 76 WNW 11 G 15 30.40 1029.6 0.00 257 0.009
9 08:00 24.3 18.7 79 W 8 G 12 30.41 1029.8 0.00 113 0.008
9 07:00 22.9 17.7 25.0 22.9 80 WNW 11 G 14 30.41 1029.9 0.00 5 0.007
9 06:00 23.4 17.9 79 WNW 8 G 12 30.42 1030.3 0.00 0 0.006
9 05:00 23.9 17.4 76 NW 10 G 15 30.41 1029.8 0.00 0 0.005
9 04:00 23.8 17.3 76 NW 10 G 16 30.42 1030.1 0.00 0 0.004
9 03:00 25.0 17.6 73 WNW 8 G 17 30.43 1030.5 0.00 0 0.003
9 02:00 24.2 14.1 65 WNW 11 G 17 30.44 1030.9 0.00 0 0.001
9 01:00 24.1 13.7 25.8 23.2 64 WNW 9 G 12 30.43 1030.6 0.00 0 0.000
9 00:00 24.5 12.2 59 WNW 7 G 11 30.43 1030.6 0.00 0 0.067
8 23:00 24.2 11.2 57 NNW 7 G 10 30.43 1030.6 0.00 0 0.066
8 22:00 23.2 11.0 59 NNW 5 G 10 30.43 1030.5 0.00 0 0.065
8 21:00 24.6 10.3 54 NW 7 G 10 30.44 1030.9 0.00 0 0.064
8 20:00 25.0 8.5 49 NNW 5 G 10 30.44 1030.7 0.00 0 0.063

Data generated by WxSolution Version 1.9.1.1, Build 2017.11.27.